Time;durP1;ratioP1;P1;durP2;ratioP2;P2;SDS_P1;SDS_P2;PMS_P1;PMS_P2;Temp;Humidity;BMP_temperature;BMP_pressure;BME280_temperature;BME280_humidity;BME280_pressure;Samples;Min_cycle;Max_cycle;Signal;HPM_P1;HPM_P2
2021/08/06 00:03:33;;;;;;;;;;;15.40;99.90;;;14.33;100.00;95021.91;10313020;28;1973;-79
2021/08/06 00:08:36;;;;;;;;;;;15.40;99.90;;;14.31;100.00;95015.22;10303214;28;2675;-79
2021/08/06 00:13:39;;;;;;;;;;;15.40;99.90;;;14.32;100.00;95011.44;10289813;28;2234;-79
2021/08/06 00:18:42;;;;;;;;;;;15.40;99.90;;;14.36;100.00;95015.06;10290368;28;2349;-81
2021/08/06 00:23:45;;;;;;;;;;;15.30;99.90;;;14.29;100.00;95012.03;10311078;28;2357;-80
2021/08/06 00:28:47;;;;;;;;;;;15.30;99.90;;;14.17;100.00;95006.44;10305091;28;2423;-79
2021/08/06 00:33:50;;;;;;;;;;;15.30;99.90;;;14.02;100.00;95005.78;10306824;28;2328;-80
2021/08/06 00:38:53;;;;;;;;;;;15.20;99.90;;;13.91;100.00;95011.78;10291223;28;2322;-80
2021/08/06 00:43:55;;;;;;;;;;;15.10;99.90;;;13.77;100.00;95007.28;10296828;28;2360;-81
2021/08/06 00:48:58;;;;;;;;;;;15.00;99.90;;;13.66;100.00;95008.66;10292157;28;2647;-80
2021/08/06 00:54:01;;;;;;;;;;;14.90;99.90;;;13.53;100.00;95009.56;10286789;28;2369;-80
2021/08/06 00:59:03;;;;;;;;;;;14.70;99.90;;;13.50;100.00;95012.91;10285977;28;2296;-81
2021/08/06 01:04:06;;;;;;;;;;;14.60;99.90;;;13.60;100.00;95009.13;10297773;28;2375;-79
2021/08/06 01:09:09;;;;;;;;;;;14.70;99.90;;;13.60;100.00;95011.81;10311030;28;2296;-79
2021/08/06 01:14:12;;;;;;;;;;;14.70;99.90;;;13.57;100.00;95009.75;10309675;28;2320;-79
2021/08/06 01:19:17;;;;;;;;;;;14.70;99.90;;;13.51;100.00;95003.69;10285543;28;2249;-81
2021/08/06 01:24:20;;;;;;;;;;;14.60;99.90;;;13.42;100.00;94998.25;10289035;28;2687;-82
2021/08/06 01:29:23;;;;;;;;;;;14.60;99.90;;;13.34;100.00;95000.88;10288584;28;2388;-79
2021/08/06 01:34:25;;;;;;;;;;;14.50;99.90;;;13.23;100.00;94992.25;10298789;28;2270;-81
2021/08/06 01:39:28;;;;;;;;;;;14.40;99.90;;;13.20;100.00;94998.25;10281788;28;1988;-80
2021/08/06 01:44:31;;;;;;;;;;;14.40;99.90;;;13.17;100.00;94993.47;10284074;28;2349;-80
2021/08/06 01:49:34;;;;;;;;;;;14.30;99.90;;;13.04;100.00;94997.03;10304219;28;2151;-81
2021/08/06 01:54:36;;;;;;;;;;;14.30;99.90;;;13.04;100.00;94994.31;10307059;28;2314;-82
2021/08/06 01:59:39;;;;;;;;;;;14.20;99.90;;;13.05;100.00;94993.25;10299112;28;2332;-81
2021/08/06 02:04:42;;;;;;;;;;;14.20;99.90;;;12.90;100.00;94989.00;10291946;28;2532;-80
2021/08/06 02:09:44;;;;;;;;;;;14.10;99.90;;;12.82;100.00;94981.66;10295475;28;2425;-79
2021/08/06 02:14:48;;;;;;;;;;;14.00;99.90;;;12.70;100.00;94974.91;10278148;28;2334;-82
2021/08/06 02:19:51;;;;;;;;;;;14.00;99.90;;;12.69;100.00;94978.72;10279210;28;2666;-81
2021/08/06 02:24:53;;;;;;;;;;;13.90;99.90;;;12.72;100.00;94971.88;10283287;28;2547;-81
2021/08/06 02:29:56;;;;;;;;;;;13.90;99.90;;;12.67;100.00;94969.34;10277821;28;2555;-80
2021/08/06 02:34:59;;;;;;;;;;;13.90;99.90;;;12.75;100.00;94976.69;10271704;28;2385;-80
2021/08/06 02:40:01;;;;;;;;;;;13.90;99.90;;;12.69;100.00;94967.91;10281847;28;2403;-80
2021/08/06 02:45:04;;;;;;;;;;;13.90;99.90;;;12.79;100.00;94969.59;10280937;28;2663;-80
2021/08/06 02:50:07;;;;;;;;;;;13.90;99.90;;;12.77;100.00;94952.91;10277766;28;2602;-81
2021/08/06 02:55:10;;;;;;;;;;;13.90;99.90;;;12.87;100.00;94947.25;10277776;28;2586;-80
2021/08/06 03:00:13;;;;;;;;;;;13.90;99.90;;;13.04;100.00;94956.56;10294206;28;2656;-79
2021/08/06 03:05:15;;;;;;;;;;;14.00;99.90;;;13.20;100.00;94965.84;10276149;28;2491;-80
2021/08/06 03:10:19;;;;;;;;;;;14.10;99.90;;;13.23;100.00;94960.69;10302572;28;3199;-80
2021/08/06 03:15:21;;;;;;;;;;;14.20;99.90;;;13.10;100.00;94963.41;10300014;28;2542;-80
2021/08/06 03:20:25;;;;;;;;;;;14.20;99.90;;;12.97;100.00;94957.00;10286611;28;2482;-80
2021/08/06 03:25:27;;;;;;;;;;;14.10;99.90;;;12.87;100.00;94962.66;10271624;28;2903;-79
2021/08/06 03:30:30;;;;;;;;;;;14.00;99.90;;;12.95;100.00;94970.00;10280514;28;2589;-80
2021/08/06 03:35:33;;;;;;;;;;;14.10;99.90;;;13.07;100.00;94967.53;10279780;28;2576;-79
2021/08/06 03:40:36;;;;;;;;;;;14.10;99.90;;;13.09;100.00;94969.91;10269321;28;2607;-79
2021/08/06 03:45:38;;;;;;;;;;;14.10;99.90;;;13.08;100.00;94968.34;10284339;28;2709;-80
2021/08/06 03:50:42;;;;;;;;;;;14.20;99.90;;;13.09;100.00;94968.00;10284437;28;2515;-80
2021/08/06 03:55:45;;;;;;;;;;;14.20;99.90;;;13.04;100.00;94988.94;10275505;28;2756;-82
2021/08/06 04:00:47;;;;;;;;;;;14.10;99.90;;;13.03;100.00;94995.44;10288420;28;2165;-80
2021/08/06 04:05:50;;;;;;;;;;;14.10;99.90;;;13.11;100.00;94994.72;10297085;28;2908;-80
2021/08/06 04:10:53;;;;;;;;;;;14.20;99.90;;;13.27;100.00;94993.22;10324118;28;2193;-80
2021/08/06 04:16:02;;;;;;;;;;;14.30;99.90;;;13.40;100.00;94989.66;10311162;28;2526;-81
2021/08/06 04:21:05;;;;;;;;;;;14.40;99.90;;;13.74;100.00;94977.38;10301622;28;2911;-80
2021/08/06 04:26:08;;;;;;;;;;;14.50;99.90;;;14.14;100.00;94980.06;10305112;28;2569;-79
2021/08/06 04:31:11;;;;;;;;;;;14.80;99.90;;;14.42;99.70;94973.25;10282349;28;2507;-80
2021/08/06 04:36:14;;;;;;;;;;;15.10;99.90;;;14.80;97.43;94956.41;10281202;28;2695;-81
2021/08/06 04:41:16;;;;;;;;;;;15.40;99.90;;;15.13;95.12;94968.31;10293025;28;2420;-79
2021/08/06 04:46:19;;;;;;;;;;;15.80;99.90;;;15.39;93.33;94970.16;10316781;28;2545;-80
2021/08/06 04:51:22;;;;;;;;;;;16.00;99.90;;;15.29;93.34;94968.59;10334391;28;2294;-80
2021/08/06 04:56:25;;;;;;;;;;;16.20;99.90;;;15.44;93.14;94980.03;10314935;28;2474;-79
2021/08/06 05:01:31;;;;;;;;;;;16.20;99.90;;;15.69;90.21;94971.03;10292172;28;2426;-80
2021/08/06 05:06:34;;;;;;;;;;;16.40;99.90;;;15.43;93.18;94967.59;10277961;28;3104;-79
2021/08/06 05:11:37;;;;;;;;;;;16.40;99.90;;;15.35;94.90;94967.31;10274497;28;2893;-81
2021/08/06 05:16:39;;;;;;;;;;;16.40;99.90;;;15.59;91.39;94960.53;10289700;28;2542;-80
2021/08/06 05:21:42;;;;;;;;;;;16.30;99.90;;;15.58;92.99;94967.84;10294576;28;2543;-79
2021/08/06 05:26:45;;;;;;;;;;;16.40;99.90;;;15.46;94.61;94966.94;10277965;28;2522;-78
2021/08/06 05:31:47;;;;;;;;;;;16.30;99.90;;;15.42;93.32;94969.50;10277959;28;2590;-79
2021/08/06 05:36:50;;;;;;;;;;;16.30;99.90;;;15.62;91.11;94976.16;10281858;28;2514;-80
2021/08/06 05:41:53;;;;;;;;;;;16.40;99.90;;;15.80;91.47;94974.19;10273988;28;2578;-80
2021/08/06 05:46:55;;;;;;;;;;;16.60;99.90;;;15.83;91.94;94973.53;10273872;28;2933;-80
2021/08/06 05:51:58;;;;;;;;;;;16.70;99.90;;;15.95;91.32;94973.63;10294439;28;2492;-78
2021/08/06 05:57:01;;;;;;;;;;;16.70;99.90;;;16.02;92.18;94973.91;10307857;28;1962;-78
2021/08/06 06:02:04;;;;;;;;;;;16.80;99.90;;;16.30;91.90;94968.00;10290394;28;2587;-81
2021/08/06 06:07:06;;;;;;;;;;;17.00;99.90;;;16.41;88.24;94963.78;10279565;28;3097;-78
2021/08/06 06:12:09;;;;;;;;;;;17.10;99.90;;;17.07;86.76;94963.91;10284903;28;2547;-78
2021/08/06 06:17:12;;;;;;;;;;;17.40;99.90;;;17.70;82.32;94959.06;10279042;28;2506;-79
2021/08/06 06:22:15;;;;;;;;;;;18.00;99.90;;;17.90;80.22;94962.84;10264057;28;2551;-80
2021/08/06 06:27:17;;;;;;;;;;;18.40;99.90;;;18.24;81.56;94961.56;10276350;28;2558;-80
2021/08/06 06:32:20;;;;;;;;;;;18.80;99.90;;;18.51;76.82;94959.25;10284755;28;2559;-82
2021/08/06 06:37:23;;;;;;;;;;;19.10;99.90;;;18.44;76.05;94961.78;10263207;28;2789;-81
2021/08/06 06:42:26;;;;;;;;;;;19.10;99.90;;;18.89;77.96;94964.28;10260504;28;2698;-80
2021/08/06 06:47:28;;;;;;;;;;;19.40;99.90;;;19.18;72.21;94966.69;10278895;28;2810;-81
2021/08/06 06:52:31;;;;;;;;;;;19.60;99.90;;;19.44;69.64;94966.19;10269910;28;2639;-83
2021/08/06 06:57:34;;;;;;;;;;;19.90;99.90;;;20.26;67.41;94964.72;10271361;28;2648;-82
2021/08/06 07:02:41;;;;;;;;;;;20.40;99.90;;;20.17;69.48;94972.34;10275473;28;2584;-82
2021/08/06 07:07:43;;;;;;;;;;;20.80;99.90;;;19.52;78.76;94988.19;10273403;28;3125;-80
2021/08/06 07:12:48;;;;;;;;;;;20.70;99.90;;;17.64;94.29;95009.34;10274228;28;2533;-82
2021/08/06 07:17:51;;;;;;;;;;;19.50;99.90;;;16.43;100.00;95021.22;10278283;28;3001;-81
2021/08/06 07:22:56;;;;;;;;;;;18.10;99.90;;;15.88;100.00;95047.31;10280200;28;1981;-82
2021/08/06 07:27:59;;;;;;;;;;;17.20;99.90;;;15.60;100.00;95065.06;10277974;28;2592;-82
2021/08/06 07:33:02;;;;;;;;;;;16.80;99.90;;;15.36;100.00;95079.91;10293193;28;2562;-80
2021/08/06 07:38:04;;;;;;;;;;;16.40;99.90;;;15.27;100.00;95083.72;10298464;28;2466;-81
2021/08/06 07:43:07;;;;;;;;;;;16.30;99.90;;;15.48;100.00;95090.09;10286598;28;2463;-82
2021/08/06 07:48:10;;;;;;;;;;;16.30;99.90;;;16.08;100.00;95093.78;10284190;28;2578;-80
2021/08/06 07:53:13;;;;;;;;;;;16.60;99.90;;;16.37;100.00;95098.47;10273779;28;2459;-78
2021/08/06 07:58:15;;;;;;;;;;;16.90;99.90;;;16.33;100.00;95098.31;10278268;28;2495;-77
2021/08/06 08:03:18;;;;;;;;;;;17.10;99.90;;;16.34;100.00;95094.47;10286575;28;2451;-78
2021/08/06 08:08:21;;;;;;;;;;;17.10;99.90;;;16.61;100.00;95087.81;10277758;28;3316;-77
2021/08/06 08:13:23;;;;;;;;;;;17.20;99.90;;;17.07;100.00;95085.31;10274371;28;2432;-78
2021/08/06 08:18:30;;;;;;;;;;;17.50;99.90;;;17.14;100.00;95091.78;10279134;28;2191;-77
2021/08/06 08:23:33;;;;;;;;;;;17.80;99.90;;;17.09;98.96;95097.41;10273446;28;2586;-77
2021/08/06 08:28:36;;;;;;;;;;;17.80;99.90;;;17.12;100.00;95091.34;10271304;28;2463;-77
2021/08/06 08:33:38;;;;;;;;;;;17.90;99.90;;;17.46;100.00;95084.00;10271013;28;2543;-77
2021/08/06 08:38:41;;;;;;;;;;;18.00;99.90;;;17.75;98.61;95086.63;10276292;28;2448;-77
2021/08/06 08:43:44;;;;;;;;;;;18.30;99.90;;;18.35;93.83;95096.03;10273449;28;2711;-76
2021/08/06 08:48:46;;;;;;;;;;;18.70;99.90;;;18.44;91.11;95084.22;10289620;28;2475;-80
2021/08/06 08:53:49;;;;;;;;;;;19.10;99.90;;;19.08;89.83;95086.22;10294826;28;2486;-80
2021/08/06 08:58:52;;;;;;;;;;;19.50;99.90;;;18.99;87.51;95085.56;10274102;28;2639;-81
2021/08/06 09:03:54;;;;;;;;;;;19.70;99.90;;;18.86;88.03;95085.59;10279956;28;2510;-80
2021/08/06 09:08:57;;;;;;;;;;;19.60;99.90;;;19.60;85.26;95072.59;10287200;28;3102;-81
2021/08/06 09:14:00;;;;;;;;;;;19.90;99.90;;;20.48;82.34;95065.09;10282072;28;2506;-79
2021/08/06 09:19:03;;;;;;;;;;;20.70;99.90;;;20.38;77.54;95065.63;10283102;28;2605;-82
2021/08/06 09:24:06;;;;;;;;;;;21.10;99.90;;;20.72;77.49;95075.03;10312345;28;2544;-81
2021/08/06 09:29:09;;;;;;;;;;;21.40;99.90;;;20.84;74.95;95087.00;10322193;28;2523;-78
2021/08/06 09:34:12;;;;;;;;;;;21.60;99.90;;;21.01;74.38;95089.34;10294333;28;2451;-80
2021/08/06 09:39:15;;;;;;;;;;;21.80;99.90;;;21.13;70.17;95085.69;10293940;28;2482;-82
2021/08/06 09:44:38;;;;;;;;;;;21.80;99.90;;;21.21;71.43;95088.22;10292745;28;2708;-82
2021/08/06 09:49:41;;;;;;;;;;;21.90;99.90;;;21.46;66.18;95061.44;10290572;28;2451;-82
2021/08/06 09:54:45;;;;;;;;;;;22.10;99.90;;;20.16;71.31;95069.75;10299619;28;2535;-80
2021/08/06 09:59:48;;;;;;;;;;;21.60;99.90;;;19.52;70.06;95078.94;10322616;28;2501;-80
2021/08/06 10:04:50;;;;;;;;;;;20.70;99.90;;;19.54;71.83;95078.59;10297972;28;2447;-80
2021/08/06 10:09:53;;;;;;;;;;;20.30;99.90;;;20.03;69.62;95092.00;10282877;28;3174;-80
2021/08/06 10:14:56;;;;;;;;;;;20.50;99.90;;;20.45;66.17;95078.69;10277715;28;2341;-82
2021/08/06 10:19:59;;;;;;;;;;;20.80;99.90;;;21.01;64.87;95081.16;10286728;28;2710;-82
2021/08/06 10:25:01;;;;;;;;;;;21.30;99.90;;;21.27;61.76;95077.78;10284907;28;2711;-78
2021/08/06 10:30:04;;;;;;;;;;;21.80;99.90;;;21.48;62.44;95061.84;10277955;28;2309;-81
2021/08/06 10:35:07;;;;;;;;;;;22.20;99.90;;;21.13;62.49;95061.91;10280066;28;2265;-81
2021/08/06 10:40:10;;;;;;;;;;;22.10;99.90;;;20.77;59.06;95050.19;10279501;28;2635;-78
2021/08/06 10:45:13;;;;;;;;;;;21.80;99.90;;;21.08;58.08;95042.25;10284859;28;2829;-81
2021/08/06 10:50:15;;;;;;;;;;;21.80;99.90;;;22.02;57.87;95036.28;10288853;28;2313;-79
2021/08/06 10:55:18;;;;;;;;;;;22.40;99.90;;;22.47;54.08;95029.25;10285107;28;2428;-80
2021/08/06 11:00:21;;;;;;;;;;;23.10;99.90;;;21.86;56.44;95027.41;10296619;28;2738;-78
2021/08/06 11:05:24;;;;;;;;;;;23.00;99.90;;;22.07;55.01;95026.97;10304281;28;2532;-78
2021/08/06 11:10:27;;;;;;;;;;;22.90;99.90;;;23.43;51.13;95005.13;10291150;28;3594;-79
2021/08/06 11:15:30;;;;;;;;;;;24.00;99.90;;;23.18;49.54;95019.31;10308780;28;2264;-78
2021/08/06 11:20:33;;;;;;;;;;;25.00;99.90;;;22.70;51.96;95014.69;10310553;28;2339;-78
2021/08/06 11:25:36;;;;;;;;;;;24.10;99.90;;;22.65;50.30;95013.09;10288096;28;2323;-80
2021/08/06 11:30:38;;;;;;;;;;;23.70;99.90;;;22.46;51.75;95003.03;10285063;28;2385;-81
2021/08/06 11:35:41;;;;;;;;;;;23.50;99.90;;;22.54;48.84;95009.38;10289284;28;2247;-79
2021/08/06 11:40:44;;;;;;;;;;;23.50;99.90;;;22.00;51.41;94996.75;10290177;28;2421;-78
2021/08/06 11:45:47;;;;;;;;;;;23.10;99.90;;;21.80;51.40;94998.75;10276506;28;2846;-79
2021/08/06 11:50:49;;;;;;;;;;;22.70;99.90;;;21.91;49.04;94993.47;10283737;28;2652;-79
2021/08/06 11:55:52;;;;;;;;;;;22.70;99.90;;;22.22;49.94;95003.41;10298338;28;2137;-78
2021/08/06 12:00:55;;;;;;;;;;;22.90;99.90;;;22.78;46.38;94983.53;10309306;28;2269;-79
2021/08/06 12:06:00;;;;;;;;;;;23.40;99.90;;;23.06;45.29;94983.91;10272904;28;3145;-81
2021/08/06 12:11:03;;;;;;;;;;;23.90;99.90;;;23.22;44.49;94991.13;10273217;28;2297;-80
2021/08/06 12:16:07;;;;;;;;;;;24.00;99.90;;;23.27;45.77;94983.38;10293186;28;2278;-79
2021/08/06 12:21:10;;;;;;;;;;;24.10;99.90;;;23.10;45.60;94978.47;10313426;28;2286;-80
2021/08/06 12:26:12;;;;;;;;;;;24.10;99.90;;;23.23;45.89;94963.38;10325485;28;1893;-79
2021/08/06 12:31:15;;;;;;;;;;;24.00;99.90;;;23.23;45.45;94966.09;10321325;28;2321;-78
2021/08/06 12:36:18;;;;;;;;;;;24.10;99.90;;;23.09;45.64;94966.69;10304549;28;2090;-79
2021/08/06 12:41:21;;;;;;;;;;;24.00;99.90;;;22.95;45.23;94966.53;10294542;28;2436;-79
2021/08/06 12:46:24;;;;;;;;;;;24.00;99.90;;;23.71;45.50;94958.00;10286407;28;2348;-81
2021/08/06 12:51:26;;;;;;;;;;;24.30;99.90;;;23.76;43.64;94965.13;10293163;28;2291;-80
2021/08/06 12:56:29;;;;;;;;;;;24.50;99.90;;;24.23;40.83;94965.13;10284312;28;2488;-83
2021/08/06 13:01:34;;;;;;;;;;;24.70;99.90;;;24.60;41.20;94952.47;10290996;28;2396;-81
2021/08/06 13:06:37;;;;;;;;;;;25.20;99.90;;;24.15;41.71;94969.00;10288966;28;3114;-81
2021/08/06 13:11:40;;;;;;;;;;;25.20;99.90;;;23.69;44.73;94961.13;10311055;28;2400;-80
2021/08/06 13:16:43;;;;;;;;;;;24.80;99.90;;;22.62;46.71;94980.94;10307094;28;2378;-78
2021/08/06 13:21:46;;;;;;;;;;;24.10;99.90;;;22.85;46.38;94961.69;10316484;28;2382;-79
2021/08/06 13:26:48;;;;;;;;;;;23.60;99.90;;;22.83;46.72;94967.53;10306813;28;2333;-79
2021/08/06 13:31:51;;;;;;;;;;;23.70;99.90;;;22.89;46.87;94957.84;10297115;28;2440;-79
2021/08/06 13:36:54;;;;;;;;;;;23.70;99.90;;;22.85;46.68;94948.00;10283062;28;2745;-80
2021/08/06 13:41:57;;;;;;;;;;;23.70;99.90;;;23.55;43.51;94939.03;10289617;28;2392;-80
2021/08/06 13:46:59;;;;;;;;;;;24.10;99.90;;;23.59;42.98;94934.34;10275301;28;2473;-80
2021/08/06 13:52:02;;;;;;;;;;;24.30;99.90;;;23.52;43.06;94945.25;10289092;28;2340;-81
2021/08/06 13:57:05;;;;;;;;;;;24.30;99.90;;;23.78;41.77;94941.59;10293987;28;2307;-82
2021/08/06 14:02:07;;;;;;;;;;;24.50;99.90;;;23.41;42.17;94952.56;10284456;28;2284;-81
2021/08/06 14:07:13;;;;;;;;;;;24.30;99.90;;;23.51;41.53;94943.69;10298527;28;3128;-81
2021/08/06 14:12:16;;;;;;;;;;;24.30;99.90;;;23.59;41.04;94948.06;10277004;28;2773;-81
2021/08/06 14:17:18;;;;;;;;;;;24.40;99.90;;;23.85;40.61;94946.38;10287636;28;2336;-81
2021/08/06 14:22:22;;;;;;;;;;;24.50;99.90;;;23.76;41.32;94948.66;10286201;28;2346;-81
2021/08/06 14:27:25;;;;;;;;;;;24.50;99.90;;;23.92;41.57;94940.94;10282192;28;2396;-81
2021/08/06 14:32:27;;;;;;;;;;;24.70;99.90;;;23.93;42.52;94953.53;10279865;28;2347;-79
2021/08/06 14:37:30;;;;;;;;;;;24.70;99.90;;;23.43;42.79;94953.00;10279088;28;2293;-81
2021/08/06 14:42:33;;;;;;;;;;;24.50;99.90;;;23.57;42.52;94957.84;10294312;28;2359;-79
2021/08/06 14:47:37;;;;;;;;;;;24.30;99.90;;;24.11;41.83;94959.13;10275128;28;2447;-81
2021/08/06 14:52:40;;;;;;;;;;;24.60;99.90;;;23.84;43.30;94961.25;10298481;28;2296;-81
2021/08/06 14:57:43;;;;;;;;;;;24.80;99.90;;;23.64;41.67;94961.47;10301642;28;2334;-81
2021/08/06 15:02:46;;;;;;;;;;;24.60;99.90;;;23.73;41.49;94961.97;10309493;28;2397;-81
2021/08/06 15:07:50;;;;;;;;;;;24.60;99.90;;;24.10;40.56;94958.34;10288294;28;3188;-81
2021/08/06 15:12:54;;;;;;;;;;;24.80;99.90;;;24.44;40.76;94964.53;10287419;28;2321;-80
2021/08/06 15:18:16;;;;;;;;;;;25.10;99.90;;;24.76;39.63;94967.50;10284844;28;2380;-80
2021/08/06 15:23:20;;;;;;;;;;;25.40;99.90;;;24.36;40.94;94968.38;10286749;28;2200;-80
2021/08/06 15:28:23;;;;;;;;;;;25.40;99.90;;;24.62;39.80;94972.91;10296476;28;2382;-79
2021/08/06 15:33:26;;;;;;;;;;;25.40;99.90;;;24.27;39.75;94960.47;10281765;28;2330;-78
2021/08/06 15:38:29;;;;;;;;;;;25.30;99.90;;;24.47;40.04;94969.25;10286745;28;2259;-81
2021/08/06 15:43:31;;;;;;;;;;;25.20;99.90;;;24.34;40.27;94961.72;10291470;28;2339;-81
2021/08/06 15:48:35;;;;;;;;;;;25.30;99.90;;;24.32;40.84;94969.53;10278220;28;2329;-80
2021/08/06 15:53:37;;;;;;;;;;;25.20;99.90;;;23.75;41.84;94964.34;10285644;28;2363;-81
2021/08/06 15:58:40;;;;;;;;;;;24.90;99.90;;;23.45;43.33;94967.13;10295365;28;2383;-81
2021/08/06 16:03:43;;;;;;;;;;;24.50;99.90;;;23.43;41.98;94961.22;10280074;28;2451;-79
2021/08/06 16:09:01;;;;;;;;;;;24.40;99.90;;;23.07;42.30;94963.56;10290603;28;3209;-79
2021/08/06 16:14:04;;;;;;;;;;;24.20;99.90;;;22.95;42.82;94963.78;10311875;28;2308;-80
2021/08/06 16:19:06;;;;;;;;;;;23.90;99.90;;;22.95;42.79;94963.78;10296101;28;2213;-78
2021/08/06 16:24:09;;;;;;;;;;;23.90;99.90;;;22.72;43.87;94958.41;10317567;28;2262;-78
2021/08/06 16:29:12;;;;;;;;;;;23.70;99.90;;;22.45;44.67;94974.03;10290881;28;2297;-79
2021/08/06 16:34:15;;;;;;;;;;;23.40;99.90;;;22.32;46.02;94980.88;10288943;28;2244;-79
2021/08/06 16:39:17;;;;;;;;;;;23.30;99.90;;;22.10;47.01;94966.88;10297216;28;2314;-81
2021/08/06 16:44:20;;;;;;;;;;;23.10;99.90;;;;;;10301161;28;2369;-78
2021/08/06 16:49:23;;;;;;;;;;;23.00;99.90;;;21.96;48.01;94983.03;10280155;28;2358;-80
2021/08/06 16:54:25;;;;;;;;;;;23.00;99.90;;;21.99;48.76;94982.28;10290751;28;2490;-80
2021/08/06 16:59:28;;;;;;;;;;;22.80;99.90;;;21.92;48.89;94995.84;10300675;28;2221;-80
2021/08/06 17:04:32;;;;;;;;;;;22.80;99.90;;;21.88;49.53;94986.78;10303384;28;2308;-79
2021/08/06 17:09:35;;;;;;;;;;;22.70;99.90;;;21.79;49.99;94984.28;10297857;28;3159;-79
2021/08/06 17:14:38;;;;;;;;;;;22.70;99.90;;;21.71;49.56;94982.59;10302963;28;2293;-78
2021/08/06 17:19:40;;;;;;;;;;;22.60;99.90;;;21.62;50.24;94983.97;10291742;28;2388;-80
2021/08/06 17:24:43;;;;;;;;;;;22.50;99.90;;;21.59;50.94;94991.75;10285396;28;2301;-80
2021/08/06 17:29:46;;;;;;;;;;;22.50;99.90;;;21.38;51.24;94993.31;10290699;28;2242;-80
2021/08/06 17:34:48;;;;;;;;;;;22.30;99.90;;;21.25;52.30;94984.44;10299940;28;2219;-79
2021/08/06 17:39:52;;;;;;;;;;;22.30;99.90;;;21.00;51.64;94987.47;10294840;28;2211;-79
2021/08/06 17:44:55;;;;;;;;;;;22.00;99.90;;;20.82;50.47;94991.75;10289014;28;2280;-80
2021/08/06 17:49:58;;;;;;;;;;;21.80;99.90;;;20.69;51.34;94988.34;10279592;28;2334;-81
2021/08/06 17:55:00;;;;;;;;;;;21.70;99.90;;;20.60;51.91;94995.94;10282107;28;2296;-81
2021/08/06 18:00:03;;;;;;;;;;;21.60;99.90;;;20.41;52.64;94991.19;10300960;28;2324;-80
2021/08/06 18:05:06;;;;;;;;;;;21.50;99.90;;;20.25;53.54;94995.91;10298701;28;2397;-80
2021/08/06 18:10:09;;;;;;;;;;;21.30;99.90;;;20.06;53.94;95001.28;10289907;28;3280;-81
2021/08/06 18:15:11;;;;;;;;;;;21.20;99.90;;;19.89;54.56;94989.56;10285001;28;2213;-79
2021/08/06 18:20:14;;;;;;;;;;;21.00;99.90;;;19.69;55.54;94990.63;10282571;28;2372;-79
2021/08/06 18:25:17;;;;;;;;;;;20.90;99.90;;;19.43;56.93;94988.34;10276344;28;2140;-80
2021/08/06 18:30:21;;;;;;;;;;;20.60;99.90;;;19.24;58.09;94985.50;10295069;28;2266;-80
2021/08/06 18:35:29;;;;;;;;;;;20.40;99.90;;;19.01;58.84;94999.66;10292132;28;2284;-78
2021/08/06 18:40:34;;;;;;;;;;;20.30;99.90;;;18.81;60.32;95000.63;10306622;28;2270;-78
2021/08/06 18:45:37;;;;;;;;;;;20.10;99.90;;;18.66;61.13;94996.69;10316570;28;2558;-79
2021/08/06 18:50:40;;;;;;;;;;;19.90;99.90;;;18.44;62.12;95008.03;10301520;28;2234;-80
2021/08/06 18:55:43;;;;;;;;;;;19.70;99.90;;;18.23;63.19;95006.25;10310737;28;2358;-78
2021/08/06 19:00:47;;;;;;;;;;;19.50;99.90;;;18.18;63.73;95016.56;10303059;28;2326;-78
2021/08/06 19:05:50;;;;;;;;;;;19.40;99.90;;;18.02;65.00;95019.16;10315001;28;3105;-81
2021/08/06 19:10:53;;;;;;;;;;;19.30;99.90;;;17.99;65.52;95019.81;10310685;28;2351;-80
2021/08/06 19:15:55;;;;;;;;;;;19.10;99.90;;;17.79;66.82;95026.94;10320695;28;2459;-79
2021/08/06 19:20:58;;;;;;;;;;;19.00;99.90;;;17.73;68.36;95041.88;10304738;28;2393;-78
2021/08/06 19:26:01;;;;;;;;;;;18.90;99.90;;;17.63;68.09;95045.00;10308351;28;2456;-81
2021/08/06 19:31:04;;;;;;;;;;;18.80;99.90;;;17.56;68.36;95051.00;10312273;28;2511;-79
2021/08/06 19:36:07;;;;;;;;;;;18.70;99.90;;;17.37;69.78;95048.78;10300813;28;2290;-79
2021/08/06 19:41:10;;;;;;;;;;;18.60;99.90;;;17.28;70.47;95057.00;10309909;28;2020;-78
2021/08/06 19:46:13;;;;;;;;;;;18.50;99.90;;;17.19;70.34;95058.22;10303591;28;1296;-79
2021/08/06 19:51:15;;;;;;;;;;;18.40;99.90;;;17.14;71.66;95064.63;10290722;28;1726;-80
2021/08/06 19:56:18;;;;;;;;;;;18.30;99.90;;;17.15;71.80;95068.94;10287219;28;1309;-80
2021/08/06 20:01:25;;;;;;;;;;;18.30;99.90;;;17.09;71.65;95062.13;10294395;28;1963;-79
2021/08/06 20:06:28;;;;;;;;;;;18.20;99.90;;;16.98;72.70;95063.63;10274286;28;2338;-79
2021/08/06 20:11:31;;;;;;;;;;;18.20;99.90;;;16.87;73.50;95065.16;10293340;28;1510;-78
2021/08/06 20:16:33;;;;;;;;;;;18.10;99.90;;;16.77;74.27;95070.97;10298120;28;1675;-78
2021/08/06 20:21:36;;;;;;;;;;;18.00;99.90;;;16.72;75.47;95064.59;10308947;28;1887;-79
2021/08/06 20:26:39;;;;;;;;;;;17.90;99.90;;;16.68;76.23;95071.00;10281159;28;1585;-80
2021/08/06 20:31:41;;;;;;;;;;;17.80;99.90;;;16.65;75.83;95072.44;10281924;28;1611;-79
2021/08/06 20:36:44;;;;;;;;;;;17.80;99.90;;;16.51;76.52;95074.63;10294563;28;1891;-78
2021/08/06 20:41:47;;;;;;;;;;;17.70;99.90;;;16.38;78.55;95070.22;10294340;28;1263;-79
2021/08/06 20:46:49;;;;;;;;;;;17.60;99.90;;;16.20;80.04;95077.66;10317084;28;1561;-80
2021/08/06 20:51:52;;;;;;;;;;;17.50;99.90;;;16.12;80.58;95076.56;10307355;28;2244;-80
2021/08/06 20:56:55;;;;;;;;;;;17.30;99.90;;;16.02;82.32;95082.34;10287214;28;2743;-80
2021/08/06 21:01:57;;;;;;;;;;;17.20;99.90;;;15.86;83.23;95076.66;10294303;28;2458;-81
2021/08/06 21:07:01;;;;;;;;;;;17.10;99.90;;;15.86;84.66;95084.00;10279641;28;2633;-79
2021/08/06 21:12:03;;;;;;;;;;;17.00;99.90;;;15.78;84.14;95099.16;10288472;28;2338;-80
2021/08/06 21:17:06;;;;;;;;;;;17.00;99.90;;;15.72;84.24;95099.66;10293657;28;2380;-79
2021/08/06 21:22:09;;;;;;;;;;;16.90;99.90;;;15.64;85.29;95098.53;10294775;28;2331;-80
2021/08/06 21:27:11;;;;;;;;;;;16.80;99.90;;;15.60;86.18;95105.72;10282570;28;2309;-79
2021/08/06 21:32:14;;;;;;;;;;;16.70;99.90;;;15.53;87.35;95103.50;10318273;28;1617;-82
2021/08/06 21:37:17;;;;;;;;;;;16.70;99.90;;;15.44;87.33;95099.97;10323048;28;2304;-80
2021/08/06 21:42:19;;;;;;;;;;;16.60;99.90;;;15.41;87.84;95108.75;10311510;28;1984;-79
2021/08/06 21:47:22;;;;;;;;;;;16.50;99.90;;;15.31;89.67;95118.00;10323217;28;2222;-80
2021/08/06 21:52:25;;;;;;;;;;;16.50;99.90;;;15.24;88.98;95123.09;10331262;28;2039;-80
2021/08/06 21:57:27;;;;;;;;;;;16.40;99.90;;;15.14;90.39;95118.81;10313553;28;2289;-79
2021/08/06 22:02:30;;;;;;;;;;;16.30;99.90;;;15.11;91.45;95121.34;10302953;28;2369;-81
2021/08/06 22:07:33;;;;;;;;;;;16.30;99.90;;;15.06;92.15;95114.16;10296614;28;2328;-82
2021/08/06 22:12:36;;;;;;;;;;;16.20;99.90;;;15.03;91.56;95122.13;10287205;28;2335;-80
2021/08/06 22:17:40;;;;;;;;;;;16.10;99.90;;;15.05;91.94;95122.59;10274252;28;2250;-79
2021/08/06 22:22:43;;;;;;;;;;;16.10;99.90;;;15.01;91.38;95119.72;10300590;28;2268;-80
2021/08/06 22:27:46;;;;;;;;;;;16.10;99.90;;;14.95;93.00;95120.19;10297611;28;2311;-82
2021/08/06 22:32:49;;;;;;;;;;;16.10;99.90;;;14.85;93.92;95121.31;10276563;28;2247;-80
2021/08/06 22:37:52;;;;;;;;;;;16.00;99.90;;;14.79;93.90;95127.97;10281611;28;2330;-79
2021/08/06 22:42:54;;;;;;;;;;;15.90;99.90;;;14.72;94.22;95123.03;10298643;28;2320;-80
2021/08/06 22:47:57;;;;;;;;;;;15.80;99.90;;;14.67;95.15;95119.69;10309678;28;2285;-79
2021/08/06 22:53:00;;;;;;;;;;;15.70;99.90;;;14.78;95.96;95099.34;10300837;28;2334;-81
2021/08/06 22:58:02;;;;;;;;;;;15.70;99.90;;;14.63;95.78;95105.97;10295421;28;2346;-80
2021/08/06 23:03:05;;;;;;;;;;;15.70;99.90;;;14.58;96.79;95104.25;10284943;28;2343;-79
2021/08/06 23:08:08;;;;;;;;;;;15.70;99.90;;;14.51;97.23;95095.00;10283591;28;2461;-80
2021/08/06 23:13:11;;;;;;;;;;;15.70;99.90;;;14.52;97.04;95094.69;10283951;28;2318;-80